Aérodrome :
LOGIN :

S'inscrire | Disclaimer

   EN    FR    IT 

 










Légende :    VFR   VFR Marginal   IFR   IFR Intensif   IFR Très Intensif
Visi : 
Plafond : 
>= 8 km
>= 3000ft
5 à 8 km
1000 à 3000 ft
1500m à 5 km
500 à 1000 ft
800 à 1500m
200 à 500 ft
< 800m
< 200 ft
Symboles :   Orages  Brouillard  Fortes neiges  Fortes précipitations  Vent > 20 kt
SIGMETs :   Divers  Orages  Givrage  Turbulence  Onde Orograph.  Cendres Volcan.






- Altitude de l'aérodrome : 297 ft


EGVP - Middle Wallop

DERNIER METAR :
  • 031950Z 02011KT 9999 SCT019 OVC064 14/10 Q1007 TEMPO FEW019 RMK WHT TEMPO BLU

METARs EXPIRÉS :
  • 031923Z 02009KT 9999 -RA SCT022 OVC060 15/10 Q1007 TEMPO FEW022 RMK WHT TEMPO BLU
  • 031850Z 02012KT 9999 -RA FEW023 OVC066 15/10 Q1007 TEMPO SCT022 RMK BLU TEMPO WHT
  • 031822Z 02010KT 9999 FEW022 OVC064 15/10 Q1007 NOSIG RMK BLU BLU
  • 031750Z 02009KT 9999 -RA FEW022 OVC060 15/10 Q1007 NOSIG RMK BLU BLU
  • 031721Z 03010KT 9999 -RA FEW022 OVC057 16/10 Q1006 TEMPO SCT022 RMK BLU TEMPO WHT

TAF TAF EGVP
Valide du 03 à 18h jusqu'au 04 à 02h UTC


031652Z 0318/0402 03010KT 9999 FEW030
TEMPO 0318/0402 SCT020
PROB30
TEMPO 0318/0322 SCT010
BECMG 0322/0324 BKN012
ATIS : +44 1980 674 142



MET'MAP, la Météo Aéronautique d'un coup d'oeil ! - Copyright ORBIFLY Décembre 2007 - Disclaimer

ORBIFLY MET'MAP TEAM :

Programmation & Développement : Alexandra Zaïnal
Sur une idée originale de : Baudouin d'Aumeries
Assistance à la programmation : Marc-Olivier Méhu
Soutien technique & logistique : Manuel Goepfert

Contact : metmap@orbifly.com




SOURCES & CREDITS :

   NOAA